sensor_id;sensor_type;location;lat;lon;timestamp;temperature;humidity
3628;DHT22;1830;49.000;12.074;2023-02-01T00:01:20;2.40;99.90
3628;DHT22;1830;49.000;12.074;2023-02-01T00:03:46;2.50;99.90
3628;DHT22;1830;49.000;12.074;2023-02-01T00:06:13;2.40;99.90
3628;DHT22;1830;49.000;12.074;2023-02-01T00:08:40;2.50;99.90
3628;DHT22;1830;49.000;12.074;2023-02-01T00:11:11;2.60;99.90
3628;DHT22;1830;49.000;12.074;2023-02-01T00:13:39;2.60;99.90
3628;DHT22;1830;49.000;12.074;2023-02-01T00:16:08;2.70;99.90
3628;DHT22;1830;49.000;12.074;2023-02-01T00:18:36;2.60;99.90
3628;DHT22;1830;49.000;12.074;2023-02-01T00:21:03;2.70;99.90
3628;DHT22;1830;49.000;12.074;2023-02-01T00:23:32;2.60;99.90
3628;DHT22;1830;49.000;12.074;2023-02-01T00:26:00;2.70;99.90
3628;DHT22;1830;49.000;12.074;2023-02-01T00:28:30;2.70;99.90
3628;DHT22;1830;49.000;12.074;2023-02-01T00:30:58;2.70;99.90
3628;DHT22;1830;49.000;12.074;2023-02-01T00:33:25;2.70;99.90
3628;DHT22;1830;49.000;12.074;2023-02-01T00:35:56;2.70;99.90
3628;DHT22;1830;49.000;12.074;2023-02-01T00:38:23;2.60;99.90
3628;DHT22;1830;49.000;12.074;2023-02-01T00:40:50;2.60;99.90
3628;DHT22;1830;49.000;12.074;2023-02-01T00:43:18;2.60;99.90
3628;DHT22;1830;49.000;12.074;2023-02-01T00:45:46;2.60;99.90
3628;DHT22;1830;49.000;12.074;2023-02-01T00:48:13;2.50;99.90
3628;DHT22;1830;49.000;12.074;2023-02-01T00:50:41;2.60;99.90
3628;DHT22;1830;49.000;12.074;2023-02-01T00:53:08;2.70;99.90
3628;DHT22;1830;49.000;12.074;2023-02-01T00:55:35;2.70;99.90
3628;DHT22;1830;49.000;12.074;2023-02-01T00:58:02;2.70;99.90
3628;DHT22;1830;49.000;12.074;2023-02-01T01:00:31;2.80;99.90
3628;DHT22;1830;49.000;12.074;2023-02-01T01:02:59;2.70;99.90
3628;DHT22;1830;49.000;12.074;2023-02-01T01:05:26;2.80;99.90
3628;DHT22;1830;49.000;12.074;2023-02-01T01:07:53;2.90;99.90
3628;DHT22;1830;49.000;12.074;2023-02-01T01:10:20;2.90;99.90
3628;DHT22;1830;49.000;12.074;2023-02-01T01:12:47;2.80;99.90
3628;DHT22;1830;49.000;12.074;2023-02-01T01:15:14;2.70;99.90
3628;DHT22;1830;49.000;12.074;2023-02-01T01:17:40;2.80;99.90
3628;DHT22;1830;49.000;12.074;2023-02-01T01:20:10;2.80;99.90
3628;DHT22;1830;49.000;12.074;2023-02-01T01:22:37;2.80;99.90
3628;DHT22;1830;49.000;12.074;2023-02-01T01:25:05;2.90;99.90
3628;DHT22;1830;49.000;12.074;2023-02-01T01:27:32;2.90;99.90
3628;DHT22;1830;49.000;12.074;2023-02-01T01:29:58;2.70;99.90
3628;DHT22;1830;49.000;12.074;2023-02-01T01:32:25;2.80;99.90
3628;DHT22;1830;49.000;12.074;2023-02-01T01:34:52;2.90;99.90
3628;DHT22;1830;49.000;12.074;2023-02-01T01:37:20;2.70;99.90
3628;DHT22;1830;49.000;12.074;2023-02-01T01:39:47;2.80;99.90
3628;DHT22;1830;49.000;12.074;2023-02-01T01:42:14;2.80;99.90
3628;DHT22;1830;49.000;12.074;2023-02-01T01:45:00;2.80;99.90
3628;DHT22;1830;49.000;12.074;2023-02-01T01:47:32;2.90;99.90
3628;DHT22;1830;49.000;12.074;2023-02-01T01:50:01;2.90;99.90
3628;DHT22;1830;49.000;12.074;2023-02-01T01:52:30;2.90;99.90
3628;DHT22;1830;49.000;12.074;2023-02-01T01:54:58;3.10;99.90
3628;DHT22;1830;49.000;12.074;2023-02-01T01:57:27;2.90;99.90
3628;DHT22;1830;49.000;12.074;2023-02-01T02:00:00;2.90;99.90
3628;DHT22;1830;49.000;12.074;2023-02-01T02:02:29;3.00;99.90
3628;DHT22;1830;49.000;12.074;2023-02-01T02:04:56;3.00;99.90
3628;DHT22;1830;49.000;12.074;2023-02-01T02:07:26;3.20;99.90
3628;DHT22;1830;49.000;12.074;2023-02-01T02:09:56;3.00;99.90
3628;DHT22;1830;49.000;12.074;2023-02-01T02:12:23;3.00;99.90
3628;DHT22;1830;49.000;12.074;2023-02-01T02:14:49;3.00;99.90
3628;DHT22;1830;49.000;12.074;2023-02-01T02:17:26;2.90;99.90
3628;DHT22;1830;49.000;12.074;2023-02-01T02:23:32;3.10;99.90
3628;DHT22;1830;49.000;12.074;2023-02-01T02:26:32;3.00;99.90
3628;DHT22;1830;49.000;12.074;2023-02-01T02:35:27;3.00;99.90
3628;DHT22;1830;49.000;12.074;2023-02-01T02:37:59;3.10;99.90
3628;DHT22;1830;49.000;12.074;2023-02-01T02:40:32;3.10;99.90
3628;DHT22;1830;49.000;12.074;2023-02-01T02:43:05;3.00;99.90
3628;DHT22;1830;49.000;12.074;2023-02-01T02:45:55;3.00;99.90
3628;DHT22;1830;49.000;12.074;2023-02-01T02:49:00;3.00;99.90
3628;DHT22;1830;49.000;12.074;2023-02-01T02:51:33;2.90;99.90
3628;DHT22;1830;49.000;12.074;2023-02-01T02:54:21;2.90;99.90
3628;DHT22;1830;49.000;12.074;2023-02-01T02:57:10;2.90;99.90
3628;DHT22;1830;49.000;12.074;2023-02-01T02:59:57;2.90;99.90
3628;DHT22;1830;49.000;12.074;2023-02-01T03:02:43;3.00;99.90
3628;DHT22;1830;49.000;12.074;2023-02-01T03:05:32;3.00;99.90
3628;DHT22;1830;49.000;12.074;2023-02-01T03:08:11;2.80;99.90
3628;DHT22;1830;49.000;12.074;2023-02-01T03:10:44;2.90;99.90
3628;DHT22;1830;49.000;12.074;2023-02-01T03:13:18;3.00;99.90
3628;DHT22;1830;49.000;12.074;2023-02-01T03:15:53;2.90;99.90
3628;DHT22;1830;49.000;12.074;2023-02-01T03:18:25;3.10;99.90
3628;DHT22;1830;49.000;12.074;2023-02-01T03:20:53;3.10;99.90
3628;DHT22;1830;49.000;12.074;2023-02-01T03:23:26;3.00;99.90
3628;DHT22;1830;49.000;12.074;2023-02-01T03:25:55;3.00;99.90
3628;DHT22;1830;49.000;12.074;2023-02-01T03:28:23;3.00;99.90
3628;DHT22;1830;49.000;12.074;2023-02-01T03:30:52;3.10;99.90
3628;DHT22;1830;49.000;12.074;2023-02-01T03:33:21;2.90;99.90
3628;DHT22;1830;49.000;12.074;2023-02-01T03:35:55;3.00;99.90
3628;DHT22;1830;49.000;12.074;2023-02-01T03:38:28;3.00;99.90
3628;DHT22;1830;49.000;12.074;2023-02-01T03:41:02;3.00;99.90
3628;DHT22;1830;49.000;12.074;2023-02-01T03:43:33;3.00;99.90
3628;DHT22;1830;49.000;12.074;2023-02-01T03:46:05;3.10;99.90
3628;DHT22;1830;49.000;12.074;2023-02-01T03:48:33;3.20;99.90
3628;DHT22;1830;49.000;12.074;2023-02-01T03:51:03;3.10;99.90
3628;DHT22;1830;49.000;12.074;2023-02-01T03:53:33;3.10;99.90
3628;DHT22;1830;49.000;12.074;2023-02-01T03:56:02;3.20;99.90
3628;DHT22;1830;49.000;12.074;2023-02-01T03:58:29;3.20;99.90
3628;DHT22;1830;49.000;12.074;2023-02-01T04:00:57;3.10;99.90
3628;DHT22;1830;49.000;12.074;2023-02-01T04:03:25;3.20;99.90
3628;DHT22;1830;49.000;12.074;2023-02-01T04:05:53;3.20;99.90
3628;DHT22;1830;49.000;12.074;2023-02-01T04:08:20;3.20;99.90
3628;DHT22;1830;49.000;12.074;2023-02-01T04:10:49;3.20;99.90
3628;DHT22;1830;49.000;12.074;2023-02-01T04:13:16;3.20;99.90
3628;DHT22;1830;49.000;12.074;2023-02-01T04:15:42;3.30;99.90
3628;DHT22;1830;49.000;12.074;2023-02-01T04:18:11;3.50;99.90
3628;DHT22;1830;49.000;12.074;2023-02-01T04:20:37;3.50;99.90
3628;DHT22;1830;49.000;12.074;2023-02-01T04:23:04;3.50;99.90
3628;DHT22;1830;49.000;12.074;2023-02-01T04:25:31;3.40;99.90
3628;DHT22;1830;49.000;12.074;2023-02-01T04:27:59;3.40;99.90
3628;DHT22;1830;49.000;12.074;2023-02-01T04:30:26;3.50;99.90
3628;DHT22;1830;49.000;12.074;2023-02-01T04:32:53;3.60;99.90
3628;DHT22;1830;49.000;12.074;2023-02-01T04:35:20;3.50;99.90
3628;DHT22;1830;49.000;12.074;2023-02-01T04:37:47;3.40;99.90
3628;DHT22;1830;49.000;12.074;2023-02-01T04:40:14;3.60;99.90
3628;DHT22;1830;49.000;12.074;2023-02-01T04:42:41;3.60;99.90
3628;DHT22;1830;49.000;12.074;2023-02-01T04:45:10;3.60;99.90
3628;DHT22;1830;49.000;12.074;2023-02-01T04:47:36;3.50;99.90
3628;DHT22;1830;49.000;12.074;2023-02-01T04:50:04;3.60;99.90
3628;DHT22;1830;49.000;12.074;2023-02-01T04:52:33;3.60;99.90
3628;DHT22;1830;49.000;12.074;2023-02-01T04:54:59;3.70;99.90
3628;DHT22;1830;49.000;12.074;2023-02-01T04:57:28;3.60;99.90
3628;DHT22;1830;49.000;12.074;2023-02-01T04:59:55;3.70;99.90
3628;DHT22;1830;49.000;12.074;2023-02-01T05:02:23;3.60;99.90
3628;DHT22;1830;49.000;12.074;2023-02-01T05:04:49;3.70;99.90
3628;DHT22;1830;49.000;12.074;2023-02-01T05:07:16;3.50;99.90
3628;DHT22;1830;49.000;12.074;2023-02-01T05:09:43;3.60;99.90
3628;DHT22;1830;49.000;12.074;2023-02-01T05:12:10;3.50;99.90
3628;DHT22;1830;49.000;12.074;2023-02-01T05:14:54;3.60;99.90
3628;DHT22;1830;49.000;12.074;2023-02-01T05:17:21;3.60;99.90
3628;DHT22;1830;49.000;12.074;2023-02-01T05:19:49;3.70;99.90
3628;DHT22;1830;49.000;12.074;2023-02-01T05:22:15;3.70;99.90
3628;DHT22;1830;49.000;12.074;2023-02-01T05:24:44;3.70;99.90
3628;DHT22;1830;49.000;12.074;2023-02-01T05:27:11;3.70;99.90
3628;DHT22;1830;49.000;12.074;2023-02-01T05:29:38;3.70;99.90
3628;DHT22;1830;49.000;12.074;2023-02-01T05:32:04;3.60;99.90
3628;DHT22;1830;49.000;12.074;2023-02-01T05:34:31;3.60;99.90
3628;DHT22;1830;49.000;12.074;2023-02-01T05:36:59;3.70;99.90
3628;DHT22;1830;49.000;12.074;2023-02-01T05:39:26;3.70;99.90
3628;DHT22;1830;49.000;12.074;2023-02-01T11:45:27;5.20;99.90
3628;DHT22;1830;49.000;12.074;2023-02-01T11:47:55;5.30;99.90
3628;DHT22;1830;49.000;12.074;2023-02-01T11:50:29;5.30;99.90
3628;DHT22;1830;49.000;12.074;2023-02-01T11:53:20;5.20;99.90
3628;DHT22;1830;49.000;12.074;2023-02-01T11:55:56;5.40;99.90
3628;DHT22;1830;49.000;12.074;2023-02-01T11:58:44;5.30;99.90
3628;DHT22;1830;49.000;12.074;2023-02-01T12:01:33;5.20;99.90
3628;DHT22;1830;49.000;12.074;2023-02-01T12:04:24;5.10;99.90
3628;DHT22;1830;49.000;12.074;2023-02-01T12:06:56;4.90;99.90
3628;DHT22;1830;49.000;12.074;2023-02-01T12:09:46;5.00;99.90
3628;DHT22;1830;49.000;12.074;2023-02-01T12:12:21;5.10;99.90
3628;DHT22;1830;49.000;12.074;2023-02-01T12:15:05;5.30;99.90
3628;DHT22;1830;49.000;12.074;2023-02-01T12:18:01;5.20;99.90
3628;DHT22;1830;49.000;12.074;2023-02-01T12:20:53;5.30;99.90
3628;DHT22;1830;49.000;12.074;2023-02-01T12:23:33;5.20;99.90
3628;DHT22;1830;49.000;12.074;2023-02-01T12:26:18;5.20;99.90
3628;DHT22;1830;49.000;12.074;2023-02-01T12:29:04;5.20;99.90
3628;DHT22;1830;49.000;12.074;2023-02-01T12:32:02;5.20;99.90
3628;DHT22;1830;49.000;12.074;2023-02-01T12:34:48;5.40;99.90
3628;DHT22;1830;49.000;12.074;2023-02-01T12:37:25;5.50;99.90
3628;DHT22;1830;49.000;12.074;2023-02-01T12:40:05;5.30;99.90
3628;DHT22;1830;49.000;12.074;2023-02-01T12:42:38;5.30;99.90
3628;DHT22;1830;49.000;12.074;2023-02-01T12:45:12;5.20;99.90
3628;DHT22;1830;49.000;12.074;2023-02-01T12:47:46;5.10;99.90
3628;DHT22;1830;49.000;12.074;2023-02-01T12:50:20;5.00;99.90
3628;DHT22;1830;49.000;12.074;2023-02-01T12:52:50;4.60;99.90
3628;DHT22;1830;49.000;12.074;2023-02-01T12:55:21;4.60;99.90
3628;DHT22;1830;49.000;12.074;2023-02-01T12:57:51;4.60;99.90
3628;DHT22;1830;49.000;12.074;2023-02-01T13:00:26;4.60;99.90
3628;DHT22;1830;49.000;12.074;2023-02-01T13:03:00;4.60;99.90
3628;DHT22;1830;49.000;12.074;2023-02-01T13:05:37;4.30;99.90
3628;DHT22;1830;49.000;12.074;2023-02-01T13:08:10;4.20;99.90
3628;DHT22;1830;49.000;12.074;2023-02-01T13:10:42;4.20;99.90
3628;DHT22;1830;49.000;12.074;2023-02-01T13:13:14;4.30;99.90
3628;DHT22;1830;49.000;12.074;2023-02-01T13:15:47;4.20;99.90
3628;DHT22;1830;49.000;12.074;2023-02-01T13:18:18;4.20;99.90
3628;DHT22;1830;49.000;12.074;2023-02-01T13:20:53;4.20;99.90
3628;DHT22;1830;49.000;12.074;2023-02-01T13:23:26;4.20;99.90
3628;DHT22;1830;49.000;12.074;2023-02-01T13:25:54;4.10;99.90
3628;DHT22;1830;49.000;12.074;2023-02-01T13:28:27;4.10;99.90
3628;DHT22;1830;49.000;12.074;2023-02-01T13:31:05;4.10;99.90
3628;DHT22;1830;49.000;12.074;2023-02-01T13:33:49;4.30;99.90
3628;DHT22;1830;49.000;12.074;2023-02-01T13:36:49;4.30;99.90
3628;DHT22;1830;49.000;12.074;2023-02-01T13:39:48;4.30;99.90
3628;DHT22;1830;49.000;12.074;2023-02-01T13:42:21;4.30;99.90
3628;DHT22;1830;49.000;12.074;2023-02-01T13:44:51;4.20;99.90
3628;DHT22;1830;49.000;12.074;2023-02-01T13:47:24;4.40;99.90
3628;DHT22;1830;49.000;12.074;2023-02-01T13:49:52;4.40;99.90
3628;DHT22;1830;49.000;12.074;2023-02-01T13:52:31;4.30;99.90
3628;DHT22;1830;49.000;12.074;2023-02-01T13:55:24;4.40;99.90
3628;DHT22;1830;49.000;12.074;2023-02-01T14:00:41;4.40;99.90
3628;DHT22;1830;49.000;12.074;2023-02-01T14:03:18;4.40;99.90
3628;DHT22;1830;49.000;12.074;2023-02-01T14:06:00;4.50;99.90
3628;DHT22;1830;49.000;12.074;2023-02-01T14:08:46;4.50;99.90
3628;DHT22;1830;49.000;12.074;2023-02-01T14:11:36;4.50;99.90
3628;DHT22;1830;49.000;12.074;2023-02-01T14:17:39;4.40;99.90
3628;DHT22;1830;49.000;12.074;2023-02-01T14:20:40;4.40;99.90
3628;DHT22;1830;49.000;12.074;2023-02-01T14:23:13;4.30;99.90
3628;DHT22;1830;49.000;12.074;2023-02-01T14:25:43;4.30;99.90
3628;DHT22;1830;49.000;12.074;2023-02-01T14:28:12;4.40;99.90
3628;DHT22;1830;49.000;12.074;2023-02-01T14:30:47;4.20;99.90
3628;DHT22;1830;49.000;12.074;2023-02-01T14:33:20;4.30;99.90
3628;DHT22;1830;49.000;12.074;2023-02-01T14:35:59;4.40;99.90
3628;DHT22;1830;49.000;12.074;2023-02-01T14:38:28;4.40;99.90
3628;DHT22;1830;49.000;12.074;2023-02-01T14:41:22;4.40;99.90
3628;DHT22;1830;49.000;12.074;2023-02-01T14:43:51;4.40;99.90
3628;DHT22;1830;49.000;12.074;2023-02-01T14:46:18;4.40;99.90
3628;DHT22;1830;49.000;12.074;2023-02-01T14:48:46;4.50;99.90
3628;DHT22;1830;49.000;12.074;2023-02-01T14:51:15;4.50;99.90
3628;DHT22;1830;49.000;12.074;2023-02-01T14:53:43;4.50;99.90
3628;DHT22;1830;49.000;12.074;2023-02-01T14:56:15;4.40;99.90
3628;DHT22;1830;49.000;12.074;2023-02-01T14:58:51;4.40;99.90
3628;DHT22;1830;49.000;12.074;2023-02-01T15:01:22;4.40;99.90
3628;DHT22;1830;49.000;12.074;2023-02-01T15:03:56;4.20;99.90
3628;DHT22;1830;49.000;12.074;2023-02-01T15:06:27;4.40;99.90
3628;DHT22;1830;49.000;12.074;2023-02-01T15:08:58;4.50;99.90
3628;DHT22;1830;49.000;12.074;2023-02-01T15:11:27;4.70;99.90
3628;DHT22;1830;49.000;12.074;2023-02-01T15:13:54;4.70;99.90
3628;DHT22;1830;49.000;12.074;2023-02-01T15:16:24;4.80;99.90
3628;DHT22;1830;49.000;12.074;2023-02-01T15:19:06;4.50;99.90
3628;DHT22;1830;49.000;12.074;2023-02-01T15:21:43;4.40;99.90
3628;DHT22;1830;49.000;12.074;2023-02-01T15:24:11;4.30;99.90
3628;DHT22;1830;49.000;12.074;2023-02-01T15:26:39;4.30;99.90
3628;DHT22;1830;49.000;12.074;2023-02-01T15:29:13;4.30;99.90
3628;DHT22;1830;49.000;12.074;2023-02-01T15:31:42;4.10;99.90
3628;DHT22;1830;49.000;12.074;2023-02-01T15:34:10;4.20;99.90
3628;DHT22;1830;49.000;12.074;2023-02-01T15:36:37;4.30;99.90
3628;DHT22;1830;49.000;12.074;2023-02-01T15:39:16;4.30;99.90
3628;DHT22;1830;49.000;12.074;2023-02-01T15:41:49;4.30;99.90
3628;DHT22;1830;49.000;12.074;2023-02-01T15:44:32;4.50;99.90
3628;DHT22;1830;49.000;12.074;2023-02-01T15:47:05;4.30;99.90
3628;DHT22;1830;49.000;12.074;2023-02-01T15:49:37;4.40;99.90
3628;DHT22;1830;49.000;12.074;2023-02-01T15:52:21;4.30;99.90
3628;DHT22;1830;49.000;12.074;2023-02-01T15:54:52;4.30;99.90
3628;DHT22;1830;49.000;12.074;2023-02-01T15:57:23;4.30;99.90
3628;DHT22;1830;49.000;12.074;2023-02-01T15:59:56;4.40;99.90
3628;DHT22;1830;49.000;12.074;2023-02-01T16:02:28;4.50;99.90
3628;DHT22;1830;49.000;12.074;2023-02-01T16:04:56;4.40;99.90
3628;DHT22;1830;49.000;12.074;2023-02-01T16:07:26;4.30;99.90
3628;DHT22;1830;49.000;12.074;2023-02-01T16:09:55;4.30;99.90
3628;DHT22;1830;49.000;12.074;2023-02-01T16:12:29;4.50;99.90
3628;DHT22;1830;49.000;12.074;2023-02-01T16:14:56;4.40;99.90
3628;DHT22;1830;49.000;12.074;2023-02-01T16:17:23;4.50;99.90
3628;DHT22;1830;49.000;12.074;2023-02-01T16:19:50;4.50;99.90
3628;DHT22;1830;49.000;12.074;2023-02-01T16:22:17;4.40;99.90
3628;DHT22;1830;49.000;12.074;2023-02-01T16:24:44;4.50;99.90
3628;DHT22;1830;49.000;12.074;2023-02-01T16:27:10;4.50;99.90
3628;DHT22;1830;49.000;12.074;2023-02-01T16:29:39;4.50;99.90
3628;DHT22;1830;49.000;12.074;2023-02-01T16:32:06;4.40;99.90
3628;DHT22;1830;49.000;12.074;2023-02-01T16:34:33;4.20;99.90
3628;DHT22;1830;49.000;12.074;2023-02-01T16:37:01;4.40;99.90
3628;DHT22;1830;49.000;12.074;2023-02-01T16:39:29;4.40;99.90
3628;DHT22;1830;49.000;12.074;2023-02-01T16:41:58;4.40;99.90
3628;DHT22;1830;49.000;12.074;2023-02-01T16:44:25;4.40;99.90
3628;DHT22;1830;49.000;12.074;2023-02-01T16:46:53;4.60;99.90
3628;DHT22;1830;49.000;12.074;2023-02-01T16:49:23;4.50;99.90
3628;DHT22;1830;49.000;12.074;2023-02-01T16:51:51;4.50;99.90
3628;DHT22;1830;49.000;12.074;2023-02-01T16:54:20;4.40;99.90
3628;DHT22;1830;49.000;12.074;2023-02-01T16:56:47;4.40;99.90
3628;DHT22;1830;49.000;12.074;2023-02-01T16:59:14;4.30;99.90
3628;DHT22;1830;49.000;12.074;2023-02-01T17:01:41;4.30;99.90
3628;DHT22;1830;49.000;12.074;2023-02-01T17:04:10;4.30;99.90
3628;DHT22;1830;49.000;12.074;2023-02-01T17:06:38;4.20;99.90
3628;DHT22;1830;49.000;12.074;2023-02-01T17:09:05;4.30;99.90
3628;DHT22;1830;49.000;12.074;2023-02-01T17:11:32;4.50;99.90
3628;DHT22;1830;49.000;12.074;2023-02-01T17:14:07;4.40;99.90
3628;DHT22;1830;49.000;12.074;2023-02-01T17:16:38;4.40;99.90
3628;DHT22;1830;49.000;12.074;2023-02-01T17:19:10;4.30;99.90
3628;DHT22;1830;49.000;12.074;2023-02-01T17:21:42;4.50;99.90
3628;DHT22;1830;49.000;12.074;2023-02-01T17:24:12;4.30;99.90
3628;DHT22;1830;49.000;12.074;2023-02-01T17:26:39;4.30;99.90
3628;DHT22;1830;49.000;12.074;2023-02-01T17:29:06;4.50;99.90
3628;DHT22;1830;49.000;12.074;2023-02-01T17:31:36;4.60;99.90
3628;DHT22;1830;49.000;12.074;2023-02-01T17:34:03;4.60;99.90
3628;DHT22;1830;49.000;12.074;2023-02-01T17:36:31;4.50;99.90
3628;DHT22;1830;49.000;12.074;2023-02-01T17:38:59;4.40;99.90
3628;DHT22;1830;49.000;12.074;2023-02-01T17:41:26;4.30;99.90
3628;DHT22;1830;49.000;12.074;2023-02-01T17:43:53;4.30;99.90
3628;DHT22;1830;49.000;12.074;2023-02-01T17:46:19;4.30;99.90
3628;DHT22;1830;49.000;12.074;2023-02-01T17:48:51;4.40;99.90
3628;DHT22;1830;49.000;12.074;2023-02-01T17:51:20;4.50;99.90
3628;DHT22;1830;49.000;12.074;2023-02-01T17:53:50;4.40;99.90
3628;DHT22;1830;49.000;12.074;2023-02-01T17:56:18;4.40;99.90
3628;DHT22;1830;49.000;12.074;2023-02-01T17:58:46;4.50;99.90
3628;DHT22;1830;49.000;12.074;2023-02-01T18:01:19;4.50;99.90
3628;DHT22;1830;49.000;12.074;2023-02-01T18:03:46;4.50;99.90
3628;DHT22;1830;49.000;12.074;2023-02-01T18:06:15;4.40;99.90
3628;DHT22;1830;49.000;12.074;2023-02-01T18:08:42;4.60;99.90
3628;DHT22;1830;49.000;12.074;2023-02-01T18:11:13;4.60;99.90
3628;DHT22;1830;49.000;12.074;2023-02-01T18:13:41;4.50;99.90
3628;DHT22;1830;49.000;12.074;2023-02-01T18:16:17;4.60;99.90
3628;DHT22;1830;49.000;12.074;2023-02-01T18:18:44;4.60;99.90
3628;DHT22;1830;49.000;12.074;2023-02-01T18:21:11;4.60;99.90
3628;DHT22;1830;49.000;12.074;2023-02-01T18:23:38;4.60;99.90
3628;DHT22;1830;49.000;12.074;2023-02-01T18:26:04;4.70;99.90
3628;DHT22;1830;49.000;12.074;2023-02-01T18:28:32;4.50;99.90
3628;DHT22;1830;49.000;12.074;2023-02-01T18:30:59;4.60;99.90
3628;DHT22;1830;49.000;12.074;2023-02-01T18:33:27;4.50;99.90
3628;DHT22;1830;49.000;12.074;2023-02-01T18:35:54;4.50;99.90
3628;DHT22;1830;49.000;12.074;2023-02-01T18:38:20;4.60;99.90
3628;DHT22;1830;49.000;12.074;2023-02-01T18:40:49;4.60;99.90
3628;DHT22;1830;49.000;12.074;2023-02-01T18:43:17;4.60;99.90
3628;DHT22;1830;49.000;12.074;2023-02-01T18:45:46;4.60;99.90
3628;DHT22;1830;49.000;12.074;2023-02-01T18:48:15;4.50;99.90
3628;DHT22;1830;49.000;12.074;2023-02-01T18:50:44;4.40;99.90
3628;DHT22;1830;49.000;12.074;2023-02-01T18:53:12;4.50;99.90
3628;DHT22;1830;49.000;12.074;2023-02-01T18:55:40;4.60;99.90
3628;DHT22;1830;49.000;12.074;2023-02-01T18:58:07;4.60;99.90
3628;DHT22;1830;49.000;12.074;2023-02-01T19:00:34;4.60;99.90
3628;DHT22;1830;49.000;12.074;2023-02-01T19:03:02;4.70;99.90
3628;DHT22;1830;49.000;12.074;2023-02-01T19:05:30;4.60;99.90
3628;DHT22;1830;49.000;12.074;2023-02-01T19:07:56;4.60;99.90
3628;DHT22;1830;49.000;12.074;2023-02-01T19:10:24;4.70;99.90
3628;DHT22;1830;49.000;12.074;2023-02-01T19:12:52;4.60;99.90
3628;DHT22;1830;49.000;12.074;2023-02-01T19:15:22;4.50;99.90
3628;DHT22;1830;49.000;12.074;2023-02-01T19:17:51;4.50;99.90
3628;DHT22;1830;49.000;12.074;2023-02-01T19:20:23;4.50;99.90
3628;DHT22;1830;49.000;12.074;2023-02-01T19:22:51;4.70;99.90
3628;DHT22;1830;49.000;12.074;2023-02-01T19:25:20;4.70;99.90
3628;DHT22;1830;49.000;12.074;2023-02-01T19:27:47;4.80;99.90
3628;DHT22;1830;49.000;12.074;2023-02-01T19:30:14;4.60;99.90
3628;DHT22;1830;49.000;12.074;2023-02-01T19:32:41;4.70;99.90
3628;DHT22;1830;49.000;12.074;2023-02-01T19:35:09;4.80;99.90
3628;DHT22;1830;49.000;12.074;2023-02-01T19:37:40;4.80;99.90
3628;DHT22;1830;49.000;12.074;2023-02-01T19:40:08;4.70;99.90
3628;DHT22;1830;49.000;12.074;2023-02-01T19:42:35;4.70;99.90
3628;DHT22;1830;49.000;12.074;2023-02-01T19:45:02;4.90;99.90
3628;DHT22;1830;49.000;12.074;2023-02-01T19:47:29;5.00;99.90
3628;DHT22;1830;49.000;12.074;2023-02-01T19:49:56;4.70;99.90
3628;DHT22;1830;49.000;12.074;2023-02-01T19:52:22;4.70;99.90
3628;DHT22;1830;49.000;12.074;2023-02-01T19:54:51;4.80;99.90
3628;DHT22;1830;49.000;12.074;2023-02-01T19:57:17;4.70;99.90
3628;DHT22;1830;49.000;12.074;2023-02-01T19:59:44;4.70;99.90
3628;DHT22;1830;49.000;12.074;2023-02-01T20:02:13;4.60;99.90
3628;DHT22;1830;49.000;12.074;2023-02-01T20:04:40;4.70;99.90
3628;DHT22;1830;49.000;12.074;2023-02-01T20:07:07;4.70;99.90
3628;DHT22;1830;49.000;12.074;2023-02-01T20:09:36;4.80;99.90
3628;DHT22;1830;49.000;12.074;2023-02-01T20:12:05;4.70;99.90
3628;DHT22;1830;49.000;12.074;2023-02-01T20:14:32;4.60;99.90
3628;DHT22;1830;49.000;12.074;2023-02-01T20:16:59;4.90;99.90
3628;DHT22;1830;49.000;12.074;2023-02-01T20:19:26;4.70;99.90
3628;DHT22;1830;49.000;12.074;2023-02-01T20:21:52;4.70;99.90
3628;DHT22;1830;49.000;12.074;2023-02-01T20:24:20;4.70;99.90
3628;DHT22;1830;49.000;12.074;2023-02-01T20:26:46;4.80;99.90
3628;DHT22;1830;49.000;12.074;2023-02-01T20:29:15;4.80;99.90
3628;DHT22;1830;49.000;12.074;2023-02-01T20:31:42;4.60;99.90
3628;DHT22;1830;49.000;12.074;2023-02-01T20:34:11;4.50;99.90
3628;DHT22;1830;49.000;12.074;2023-02-01T20:36:38;4.60;99.90
3628;DHT22;1830;49.000;12.074;2023-02-01T20:39:05;4.70;99.90
3628;DHT22;1830;49.000;12.074;2023-02-01T20:41:32;4.70;99.90
3628;DHT22;1830;49.000;12.074;2023-02-01T20:43:59;4.80;99.90
3628;DHT22;1830;49.000;12.074;2023-02-01T20:46:27;4.70;99.90
3628;DHT22;1830;49.000;12.074;2023-02-01T20:48:54;4.80;99.90
3628;DHT22;1830;49.000;12.074;2023-02-01T20:51:21;4.60;99.90
3628;DHT22;1830;49.000;12.074;2023-02-01T20:53:48;4.70;99.90
3628;DHT22;1830;49.000;12.074;2023-02-01T20:56:17;4.70;99.90
3628;DHT22;1830;49.000;12.074;2023-02-01T20:58:45;4.70;99.90
3628;DHT22;1830;49.000;12.074;2023-02-01T21:01:12;4.70;99.90
3628;DHT22;1830;49.000;12.074;2023-02-01T21:03:40;4.70;99.90
3628;DHT22;1830;49.000;12.074;2023-02-01T21:06:09;4.90;99.90
3628;DHT22;1830;49.000;12.074;2023-02-01T21:08:36;4.70;99.90
3628;DHT22;1830;49.000;12.074;2023-02-01T21:11:05;4.70;99.90
3628;DHT22;1830;49.000;12.074;2023-02-01T21:13:34;4.70;99.90
3628;DHT22;1830;49.000;12.074;2023-02-01T21:16:07;4.70;99.90
3628;DHT22;1830;49.000;12.074;2023-02-01T21:18:34;4.70;99.90
3628;DHT22;1830;49.000;12.074;2023-02-01T21:21:05;4.60;99.90
3628;DHT22;1830;49.000;12.074;2023-02-01T21:23:31;4.70;99.90
3628;DHT22;1830;49.000;12.074;2023-02-01T21:26:09;4.50;99.90
3628;DHT22;1830;49.000;12.074;2023-02-01T21:28:36;4.60;99.90
3628;DHT22;1830;49.000;12.074;2023-02-01T21:31:04;4.60;99.90
3628;DHT22;1830;49.000;12.074;2023-02-01T21:33:30;4.70;99.90
3628;DHT22;1830;49.000;12.074;2023-02-01T21:35:59;4.50;99.90
3628;DHT22;1830;49.000;12.074;2023-02-01T21:38:28;4.60;99.90
3628;DHT22;1830;49.000;12.074;2023-02-01T21:40:55;4.60;99.90
3628;DHT22;1830;49.000;12.074;2023-02-01T21:43:39;4.50;99.90
3628;DHT22;1830;49.000;12.074;2023-02-01T21:46:06;4.50;99.90
3628;DHT22;1830;49.000;12.074;2023-02-01T21:48:33;4.40;99.90
3628;DHT22;1830;49.000;12.074;2023-02-01T21:51:03;4.40;99.90
3628;DHT22;1830;49.000;12.074;2023-02-01T21:53:31;4.50;99.90
3628;DHT22;1830;49.000;12.074;2023-02-01T21:55:58;4.30;99.90
3628;DHT22;1830;49.000;12.074;2023-02-01T21:58:24;4.40;99.90
3628;DHT22;1830;49.000;12.074;2023-02-01T22:00:51;4.60;99.90
3628;DHT22;1830;49.000;12.074;2023-02-01T22:03:18;4.50;99.90
3628;DHT22;1830;49.000;12.074;2023-02-01T22:05:48;4.40;99.90
3628;DHT22;1830;49.000;12.074;2023-02-01T22:08:15;4.20;99.90
3628;DHT22;1830;49.000;12.074;2023-02-01T22:10:43;4.10;99.90
3628;DHT22;1830;49.000;12.074;2023-02-01T22:13:10;4.20;99.90
3628;DHT22;1830;49.000;12.074;2023-02-01T22:15:36;4.10;99.90
3628;DHT22;1830;49.000;12.074;2023-02-01T22:18:03;4.10;99.90
3628;DHT22;1830;49.000;12.074;2023-02-01T22:20:30;4.00;99.90
3628;DHT22;1830;49.000;12.074;2023-02-01T22:22:57;4.10;99.90
3628;DHT22;1830;49.000;12.074;2023-02-01T22:25:23;4.10;99.90
3628;DHT22;1830;49.000;12.074;2023-02-01T22:27:52;4.10;99.90
3628;DHT22;1830;49.000;12.074;2023-02-01T22:30:18;4.40;99.90
3628;DHT22;1830;49.000;12.074;2023-02-01T22:32:46;4.20;99.90
3628;DHT22;1830;49.000;12.074;2023-02-01T22:35:13;4.20;99.90
3628;DHT22;1830;49.000;12.074;2023-02-01T22:37:40;4.30;99.90
3628;DHT22;1830;49.000;12.074;2023-02-01T22:40:09;4.40;99.90
3628;DHT22;1830;49.000;12.074;2023-02-01T22:42:37;4.40;99.90
3628;DHT22;1830;49.000;12.074;2023-02-01T22:45:06;4.30;99.90